Time;durP1;ratioP1;P1;durP2;ratioP2;P2;SDS_P1;SDS_P2;PMS_P1;PMS_P2;Temp;Humidity;BMP_temperature;BMP_pressure;BME280_temperature;BME280_humidity;BME280_pressure;Samples;Min_cycle;Max_cycle;Signal;HPM_P1;HPM_P2
2022/11/15 00:00:14;;;;;;;5.95;3.75;;;;;;;2.65;100.00;100185.81;5151922;27;20047;-52
2022/11/15 00:02:41;;;;;;;4.10;3.65;;;;;;;2.26;100.00;100174.00;5151868;27;20087;-52
2022/11/15 00:05:07;;;;;;;4.28;3.55;;;;;;;2.55;100.00;100190.25;5151970;27;20050;-53
2022/11/15 00:07:33;;;;;;;8.63;3.55;;;;;;;2.44;100.00;100183.34;5152150;27;20118;-53
2022/11/15 00:10:00;;;;;;;11.50;3.63;;;;;;;2.61;100.00;100193.72;5152143;27;20056;-52
2022/11/15 00:12:27;;;;;;;3.92;3.35;;;;;;;2.47;100.00;100181.97;5151831;27;20089;-54
2022/11/15 00:14:53;;;;;;;4.32;3.58;;;;;;;2.18;100.00;100193.56;5151076;27;20073;-52
2022/11/15 00:17:20;;;;;;;8.77;3.83;;;;;;;2.32;100.00;100185.59;5152018;27;20085;-52
2022/11/15 00:19:47;;;;;;;5.82;3.92;;;;;;;2.07;100.00;100195.56;5151751;27;20069;-52
2022/11/15 00:22:13;;;;;;;5.65;4.18;;;;;;;2.57;100.00;100196.19;5151854;27;20407;-52
2022/11/15 00:24:39;;;;;;;10.23;4.40;;;;;;;2.58;100.00;100186.16;5151719;27;20558;-53
2022/11/15 00:27:05;;;;;;;6.60;4.10;;;;;;;2.78;100.00;100185.94;5151471;27;20513;-54
2022/11/15 00:29:32;;;;;;;5.22;4.18;;;;;;;2.93;100.00;100179.56;5151673;27;20068;-52
2022/11/15 00:31:58;;;;;;;4.63;3.53;;;;;;;2.02;100.00;100173.97;5151368;27;20047;-55
2022/11/15 00:34:25;;;;;;;8.15;4.20;;;;;;;2.68;100.00;100190.66;5151407;27;20047;-53
2022/11/15 00:36:51;;;;;;;6.53;4.38;;;;;;;2.98;100.00;100175.97;5151311;27;20566;-52
2022/11/15 00:39:17;;;;;;;7.20;4.32;;;;;;;2.96;100.00;100137.53;5151410;27;20049;-52
2022/11/15 00:41:44;;;;;;;9.25;4.20;;;;;;;2.36;100.00;100125.19;5151417;27;20074;-55
2022/11/15 00:44:10;;;;;;;9.65;4.57;;;;;;;2.32;100.00;100150.44;5151619;27;20043;-52
2022/11/15 00:46:36;;;;;;;8.00;4.53;;;;;;;2.78;100.00;100147.22;5151204;27;20495;-53
2022/11/15 00:49:03;;;;;;;12.23;5.03;;;;;;;2.70;100.00;100132.44;5151451;27;20053;-53
2022/11/15 00:51:30;;;;;;;15.45;5.20;;;;;;;2.22;100.00;100135.09;5151248;27;20043;-52
2022/11/15 00:53:56;;;;;;;15.00;5.65;;;;;;;2.61;100.00;100138.78;5151376;27;20572;-52
2022/11/15 00:56:22;;;;;;;7.38;4.40;;;;;;;2.42;100.00;100139.50;5151106;27;20607;-52
2022/11/15 00:58:49;;;;;;;11.25;4.65;;;;;;;2.43;100.00;100143.81;5150965;27;20505;-52
2022/11/15 01:01:15;;;;;;;6.95;4.30;;;;;;;2.61;100.00;100153.09;5151308;27;20061;-52
2022/11/15 01:03:42;;;;;;;6.18;4.03;;;;;;;2.29;100.00;100140.16;5151223;27;20057;-52
2022/11/15 01:06:09;;;;;;;6.25;4.22;;;;;;;2.44;100.00;100144.63;5151106;27;20450;-52
2022/11/15 01:08:36;;;;;;;7.10;5.00;;;;;;;2.71;100.00;100155.69;5151108;27;20062;-52
2022/11/15 01:11:04;;;;;;;5.68;3.80;;;;;;;2.57;100.00;100142.06;5150822;27;20128;-52
2022/11/15 01:13:32;;;;;;;6.35;3.72;;;;;;;2.69;100.00;100136.22;5150864;27;20600;-53
2022/11/15 01:15:58;;;;;;;6.45;4.13;;;;;;;2.23;100.00;100134.03;5151107;27;20053;-52
2022/11/15 01:18:25;;;;;;;4.18;3.38;;;;;;;1.59;100.00;100145.91;5150782;27;20054;-52
2022/11/15 01:20:51;;;;;;;7.10;4.45;;;;;;;1.70;100.00;100133.09;5150697;27;20053;-52
2022/11/15 01:23:17;;;;;;;10.52;4.50;;;;;;;1.73;100.00;100119.84;5150966;27;20069;-53
2022/11/15 01:25:44;;;;;;;5.72;4.32;;;;;;;1.91;100.00;100104.84;5152536;27;20047;-52
2022/11/15 01:28:10;;;;;;;4.05;3.50;;;;;;;1.96;100.00;100091.25;5154432;27;20051;-52
2022/11/15 01:30:37;;;;;;;4.45;3.63;;;;;;;2.21;100.00;100082.09;5154377;27;20051;-52
2022/11/15 01:33:03;;;;;;;5.57;3.80;;;;;;;2.44;100.00;100091.31;5154396;27;20537;-54
2022/11/15 01:35:29;;;;;;;8.05;4.03;;;;;;;2.18;100.00;100106.22;5154324;27;20504;-52
2022/11/15 01:37:56;;;;;;;6.68;4.32;;;;;;;2.47;100.00;100104.28;5154062;27;20055;-54
2022/11/15 01:40:22;;;;;;;5.95;4.15;;;;;;;1.70;100.00;100096.09;5154165;27;20043;-53
2022/11/15 01:42:49;;;;;;;8.32;4.60;;;;;;;1.82;100.00;100083.00;5153995;27;20053;-53
2022/11/15 01:45:16;;;;;;;8.27;4.35;;;;;;;1.95;100.00;100083.44;5153946;27;20060;-52
2022/11/15 01:47:47;;;;;;;5.95;4.40;;;;;;;1.51;100.00;100079.75;5154236;27;20057;-52
2022/11/15 01:50:17;;;;;;;12.80;5.63;;;;;;;1.32;100.00;100058.00;5153942;27;20141;-52
2022/11/15 01:52:44;;;;;;;11.43;5.20;;;;;;;1.51;100.00;100041.13;5154099;27;20131;-52
2022/11/15 01:55:14;;;;;;;10.35;4.70;;;;;;;1.63;100.00;100022.59;5154302;27;20046;-52
2022/11/15 01:57:43;;;;;;;9.27;5.43;;;;;;;1.70;100.00;100017.72;5153878;27;20118;-53
2022/11/15 02:00:12;;;;;;;7.18;5.45;;;;;;;2.18;100.00;100006.91;5154317;27;20057;-52
2022/11/15 02:02:39;;;;;;;11.88;6.78;;;;;;;1.73;100.00;100021.72;5153932;27;20058;-52
2022/11/15 02:05:05;;;;;;;11.07;6.43;;;;;;;1.92;100.00;100021.81;5153838;27;20050;-54
2022/11/15 02:07:34;;;;;;;18.20;7.57;;;;;;;1.97;100.00;100040.69;5153763;27;20061;-52
2022/11/15 02:10:06;;;;;;;12.07;6.35;;;;;;;2.15;100.00;100042.66;5154026;27;20046;-54
2022/11/15 02:12:33;;;;;;;11.88;7.07;;;;;;;2.19;100.00;100051.78;5153617;27;20049;-53
2022/11/15 02:15:01;;;;;;;14.43;8.73;;;;;;;2.26;100.00;100052.25;5153803;27;20055;-52
2022/11/15 02:17:44;;;;;;;14.90;7.65;;;;;;;1.68;100.00;100054.22;5153583;27;20050;-52
2022/11/15 02:20:38;;;;;;;14.30;8.32;;;;;;;2.09;100.00;100036.47;5153724;27;20043;-52
2022/11/15 02:23:34;;;;;;;15.70;8.15;;;;;;;1.82;100.00;100037.03;5153605;27;20061;-52
2022/11/15 02:26:30;;;;;;;19.38;8.65;;;;;;;1.69;100.00;100043.09;5127065;27;20051;-52
2022/11/15 02:29:03;;;;;;;15.15;8.30;;;;;;;1.84;100.00;100039.47;5153708;27;20161;-52
2022/11/15 02:31:41;;;;;;;15.05;7.93;;;;;;;1.54;100.00;100037.84;5153453;27;20047;-51
2022/11/15 02:34:17;;;;;;;14.75;8.00;;;;;;;1.30;100.00;100040.44;5153590;27;20053;-52
2022/11/15 02:36:54;;;;;;;18.52;9.15;;;;;;;1.26;100.00;100017.78;5152424;27;20046;-53
2022/11/15 02:39:30;;;;;;;18.90;9.27;;;;;;;1.67;100.00;99982.31;5153284;27;20390;-52
2022/11/15 02:42:00;;;;;;;17.13;9.30;;;;;;;1.45;100.00;99991.69;5153349;27;20050;-52
2022/11/15 02:44:33;;;;;;;21.23;9.38;;;;;;;1.37;100.00;99966.13;5153226;27;20053;-52
2022/11/15 02:47:13;;;;;;;21.98;9.57;;;;;;;1.11;100.00;99946.63;5153199;27;20057;-52
2022/11/15 02:49:42;;;;;;;21.75;9.80;;;;;;;1.66;100.00;99908.53;5153430;27;20137;-52
2022/11/15 02:52:08;;;;;;;21.17;9.55;;;;;;;1.35;100.00;99921.56;5153277;27;20088;-52
2022/11/15 02:54:35;;;;;;;20.55;9.52;;;;;;;1.31;100.00;99909.72;5153121;27;20119;-53
2022/11/15 02:57:04;;;;;;;24.48;11.15;;;;;;;1.77;100.00;99896.50;5153169;27;20051;-52
2022/11/15 02:59:57;;;;;;;18.05;8.63;;;;;;;1.52;100.00;99916.50;5152869;27;20487;-53
2022/11/15 03:02:40;;;;;;;22.10;9.80;;;;;;;1.58;100.00;99930.78;5153053;27;20190;-52
2022/11/15 03:05:18;;;;;;;14.82;7.05;;;;;;;2.11;100.00;99936.94;5152856;27;20050;-53
2022/11/15 03:07:53;;;;;;;13.68;6.38;;;;;;;1.76;100.00;99967.88;5153212;27;20211;-54
2022/11/15 03:10:26;;;;;;;18.25;8.40;;;;;;;1.33;100.00;99983.97;5152594;27;20183;-52
2022/11/15 03:12:58;;;;;;;17.45;8.73;;;;;;;1.07;100.00;99956.38;5152946;27;20442;-53
2022/11/15 03:15:30;;;;;;;17.67;9.63;;;;;;;1.24;100.00;99934.34;5152621;27;20054;-52
2022/11/15 03:18:02;;;;;;;19.02;8.82;;;;;;;1.70;100.00;99919.56;5152756;27;20614;-53
2022/11/15 03:20:31;;;;;;;15.75;7.97;;;;;;;1.07;100.00;99923.97;5152658;27;20106;-52
2022/11/15 03:23:03;;;;;;;12.98;6.80;;;;;;;0.99;100.00;99900.25;5152383;27;20135;-52
2022/11/15 03:25:32;;;;;;;15.80;7.03;;;;;;;1.05;100.00;99880.22;5152574;27;20042;-53
2022/11/15 03:28:01;;;;;;;13.85;6.47;;;;;;;1.42;100.00;99860.69;5152414;27;20530;-53
2022/11/15 03:30:30;;;;;;;9.63;5.63;;;;;;;1.05;100.00;99863.22;5152467;27;20432;-52
2022/11/15 03:33:00;;;;;;;9.57;4.80;;;;;;;0.70;100.00;99854.38;5152319;27;20095;-54
2022/11/15 03:35:30;;;;;;;8.48;3.75;;;;;;;0.64;100.00;99826.59;5152939;27;20196;-52
2022/11/15 03:38:06;;;;;;;9.07;3.92;;;;;;;1.32;100.00;99803.25;5152162;27;20046;-53
2022/11/15 03:40:38;;;;;;;10.70;4.55;;;;;;;1.68;100.00;99817.16;5152235;27;20146;-52
2022/11/15 03:43:11;;;;;;;5.80;3.78;;;;;;;1.80;100.00;99851.84;5152323;27;20058;-53
2022/11/15 03:45:43;;;;;;;8.43;3.55;;;;;;;1.71;100.00;99886.84;5152241;27;20050;-52
2022/11/15 03:48:14;;;;;;;5.90;2.83;;;;;;;1.64;100.00;99908.03;5151785;27;20469;-52
2022/11/15 03:50:41;;;;;;;6.10;3.20;;;;;;;1.57;100.00;99921.88;5151534;27;20052;-52
2022/11/15 03:53:08;;;;;;;4.95;2.90;;;;;;;1.72;100.00;99923.59;5152094;27;20065;-53
2022/11/15 03:55:35;;;;;;;5.45;2.90;;;;;;;1.68;100.00;99927.97;5151917;27;20042;-53
2022/11/15 03:58:02;;;;;;;10.43;3.92;;;;;;;1.46;100.00;99941.16;5151735;27;20046;-52
2022/11/15 04:00:28;;;;;;;5.10;3.05;;;;;;;1.37;100.00;99930.19;5152140;27;20106;-53
2022/11/15 04:02:54;;;;;;;3.85;1.98;;;;;;;1.27;100.00;99927.59;5151935;27;20057;-54
2022/11/15 04:05:21;;;;;;;6.30;2.60;;;;;;;1.06;100.00;99902.63;5152091;27;20133;-53
2022/11/15 04:07:51;;;;;;;4.07;2.72;;;;;;;0.99;100.00;99880.56;5151961;27;20050;-52
2022/11/15 04:10:17;;;;;;;5.95;2.78;;;;;;;1.07;100.00;99855.66;5151663;27;20043;-52
2022/11/15 04:12:47;;;;;;;6.55;2.90;;;;;;;1.19;100.00;99845.25;5151736;27;20042;-52
2022/11/15 04:15:18;;;;;;;4.53;2.58;;;;;;;1.18;100.00;99832.84;5151884;27;20046;-53
2022/11/15 04:17:46;;;;;;;7.95;2.92;;;;;;;0.86;100.00;99818.03;5151894;27;20449;-53
2022/11/15 04:25:52;;;;;;;8.55;3.20;;;;;;;1.41;100.00;99750.19;5151640;27;20054;-52
2022/11/15 04:28:19;;;;;;;5.47;2.40;;;;;;;1.33;100.00;99758.94;5151802;27;20055;-53
2022/11/15 04:30:45;;;;;;;5.43;3.08;;;;;;;1.18;100.00;99770.75;5151920;27;20607;-52
2022/11/15 04:33:12;;;;;;;4.72;2.72;;;;;;;1.02;100.00;99772.78;5152123;27;20595;-52
2022/11/15 04:35:38;;;;;;;4.00;2.80;;;;;;;1.32;100.00;99762.75;5151527;27;20057;-52
2022/11/15 04:38:07;;;;;;;5.05;2.78;;;;;;;1.37;100.00;99774.28;5151608;27;20051;-53
2022/11/15 04:40:33;;;;;;;5.28;2.63;;;;;;;1.41;100.00;99793.44;5151584;27;20173;-52
2022/11/15 04:42:59;;;;;;;3.53;1.73;;;;;;;1.12;100.00;99793.47;5151705;27;20047;-53
2022/11/15 04:45:25;;;;;;;8.73;3.08;;;;;;;1.08;100.00;99787.06;5151285;27;20193;-53
2022/11/15 04:47:52;;;;;;;7.75;3.65;;;;;;;1.22;100.00;99781.75;5151250;27;20195;-52
2022/11/15 04:50:18;;;;;;;11.65;5.63;;;;;;;1.17;100.00;99786.13;5151141;27;20051;-52
2022/11/15 04:52:51;;;;;;;9.43;6.13;;;;;;;1.52;100.00;99783.31;5151417;27;20513;-52
2022/11/15 04:55:18;;;;;;;11.15;6.30;;;;;;;1.16;100.00;99798.00;5151081;27;20046;-53
2022/11/15 04:57:45;;;;;;;14.80;6.50;;;;;;;1.49;100.00;99786.56;5151167;27;20137;-52
2022/11/15 05:00:16;;;;;;;10.45;5.60;;;;;;;1.53;100.00;99779.50;5152074;27;20098;-51
2022/11/15 05:05:27;;;;;;;11.02;5.20;;;;;;;1.69;100.00;99809.84;5155037;27;20053;-54
2022/11/15 05:07:53;;;;;;;11.80;6.80;;;;;;;2.05;100.00;99810.16;5154527;27;20047;-52
2022/11/15 05:10:20;;;;;;;12.05;6.00;;;;;;;1.98;100.00;99820.53;5154573;27;20083;-52
2022/11/15 05:12:47;;;;;;;11.65;6.65;;;;;;;1.79;100.00;99826.72;5154650;27;20089;-52
2022/11/15 05:15:13;;;;;;;15.65;8.40;;;;;;;1.37;100.00;99822.94;5154502;27;20133;-53
2022/11/15 05:17:40;;;;;;;18.38;10.63;;;;;;;1.61;100.00;99809.38;5154740;27;20050;-54
2022/11/15 05:20:07;;;;;;;17.02;8.90;;;;;;;1.16;100.00;99805.31;5154923;27;20452;-52
2022/11/15 05:22:33;;;;;;;13.32;7.80;;;;;;;1.36;100.00;99796.97;5154532;27;20169;-52
2022/11/15 05:25:00;;;;;;;12.80;7.85;;;;;;;1.30;100.00;99786.53;5154580;27;20047;-52
2022/11/15 05:27:27;;;;;;;13.85;6.90;;;;;;;1.56;100.00;99760.00;5154969;27;20107;-53
2022/11/15 05:29:53;;;;;;;10.15;5.68;;;;;;;1.13;100.00;99758.09;5154401;27;20561;-55
2022/11/15 05:32:19;;;;;;;16.15;6.07;;;;;;;1.74;100.00;99747.63;5154573;27;20047;-53
2022/11/15 05:34:46;;;;;;;9.23;4.50;;;;;;;1.28;100.00;99761.72;5154074;27;20051;-53
2022/11/15 05:37:14;;;;;;;4.65;2.55;;;;;;;1.01;100.00;99744.19;5154405;27;20141;-54
2022/11/15 05:39:40;;;;;;;8.20;3.78;;;;;;;1.38;100.00;99729.16;5153948;27;20534;-56
2022/11/15 05:42:09;;;;;;;6.20;3.40;;;;;;;0.80;100.00;99738.22;5154111;27;20047;-52
2022/11/15 05:44:38;;;;;;;8.68;4.00;;;;;;;1.15;100.00;99704.59;5154452;27;20047;-52
2022/11/15 05:47:08;;;;;;;7.43;3.45;;;;;;;1.72;100.00;99696.53;5154010;27;20047;-53
2022/11/15 05:49:38;;;;;;;9.25;3.85;;;;;;;1.81;100.00;99727.22;5154018;27;20065;-53
2022/11/15 05:52:07;;;;;;;6.97;4.03;;;;;;;1.46;100.00;99741.22;5153852;27;20082;-53
2022/11/15 05:54:35;;;;;;;8.55;3.53;;;;;;;1.32;100.00;99747.31;5154323;27;20561;-54
2022/11/15 05:57:02;;;;;;;15.40;4.72;;;;;;;1.63;100.00;99719.91;5153693;27;20057;-52
2022/11/15 05:59:30;;;;;;;12.70;4.70;;;;;;;1.54;100.00;99725.16;5154100;27;20046;-56
2022/11/15 06:01:57;;;;;;;14.07;6.50;;;;;;;1.96;100.00;99717.25;5153770;27;20046;-54
2022/11/15 06:04:23;;;;;;;15.82;6.07;;;;;;;2.26;100.00;99748.44;5153776;27;20046;-52
2022/11/15 06:06:50;;;;;;;15.20;6.90;;;;;;;1.98;100.00;99763.75;5153697;27;20095;-54
2022/11/15 06:09:16;;;;;;;12.15;5.88;;;;;;;2.10;100.00;99770.34;5153578;27;20050;-53
2022/11/15 06:11:42;;;;;;;20.98;6.95;;;;;;;2.46;100.00;99777.88;5152720;27;20043;-52
2022/11/15 06:14:09;;;;;;;16.55;8.27;;;;;;;2.33;100.00;99776.75;5153570;27;20046;-52
2022/11/15 06:16:35;;;;;;;30.42;11.15;;;;;;;1.51;100.00;99765.47;5153568;27;20046;-56
2022/11/15 06:19:02;;;;;;;24.75;11.13;;;;;;;1.99;100.00;99757.25;5153388;27;20051;-53
2022/11/15 06:21:28;;;;;;;26.25;12.98;;;;;;;1.84;100.00;99744.75;5153840;27;20489;-53
2022/11/15 06:23:55;;;;;;;25.85;13.25;;;;;;;1.77;100.00;99730.81;5152974;27;20046;-52
2022/11/15 06:26:21;;;;;;;22.52;9.75;;;;;;;1.71;100.00;99731.97;5153665;27;20119;-52
2022/11/15 06:28:48;;;;;;;21.20;9.73;;;;;;;1.92;100.00;99710.84;5153167;27;20054;-53
2022/11/15 06:31:14;;;;;;;20.23;9.07;;;;;;;2.30;100.00;99711.56;5153259;27;20042;-53
2022/11/15 06:33:41;;;;;;;18.45;10.27;;;;;;;1.92;100.00;99722.47;5153203;27;20050;-55
2022/11/15 06:36:13;;;;;;;30.08;12.77;;;;;;;1.64;100.00;99721.53;5153169;27;20058;-52
2022/11/15 06:38:39;;;;;;;33.55;15.13;;;;;;;2.02;100.00;99694.47;5153164;27;20054;-53
2022/11/15 06:41:08;;;;;;;30.17;13.50;;;;;;;2.21;100.00;99687.13;5152996;27;20061;-52
2022/11/15 06:43:35;;;;;;;24.70;13.60;;;;;;;2.11;100.00;99690.00;5153230;27;20107;-55
2022/11/15 06:46:02;;;;;;;21.90;10.07;;;;;;;1.50;100.00;99689.03;5153102;27;20054;-53
2022/11/15 06:48:29;;;;;;;22.15;9.70;;;;;;;1.45;100.00;99658.56;5153462;27;20133;-53
2022/11/15 06:50:57;;;;;;;23.60;10.88;;;;;;;1.60;100.00;99626.72;5152897;27;20061;-52
2022/11/15 06:53:24;;;;;;;68.25;21.80;;;;;;;2.13;100.00;99609.34;5153067;27;20053;-53
2022/11/15 06:55:51;;;;;;;35.20;14.55;;;;;;;1.52;100.00;99613.06;5152683;27;20051;-52
2022/11/15 06:58:17;;;;;;;21.58;10.50;;;;;;;1.38;100.00;99586.00;5153011;27;20053;-52
2022/11/15 07:00:44;;;;;;;51.33;20.23;;;;;;;1.82;100.00;99542.28;5152868;27;20406;-52
2022/11/15 07:03:10;;;;;;;40.80;13.57;;;;;;;2.02;100.00;99548.44;5152769;27;20050;-53
2022/11/15 07:05:37;;;;;;;23.52;9.13;;;;;;;1.91;100.00;99557.84;5152786;27;20409;-52
2022/11/15 07:08:03;;;;;;;32.17;13.60;;;;;;;2.11;100.00;99550.13;5152798;27;20057;-52
2022/11/15 07:10:30;;;;;;;27.55;12.25;;;;;;;2.09;100.00;99554.25;5152696;27;20519;-55
2022/11/15 07:12:57;;;;;;;20.08;7.55;;;;;;;1.70;100.00;99560.06;5152370;27;20501;-52
2022/11/15 07:15:25;;;;;;;14.35;7.57;;;;;;;1.64;100.00;99565.56;5152649;27;20057;-52
2022/11/15 07:17:52;;;;;;;27.00;11.57;;;;;;;1.54;100.00;99554.94;5152300;27;20137;-56
2022/11/15 07:20:19;;;;;;;16.80;9.48;;;;;;;1.66;100.00;99538.25;5152887;27;20050;-53
2022/11/15 07:22:45;;;;;;;16.88;11.23;;;;;;;1.79;100.00;99528.56;5152141;27;20051;-54
2022/11/15 07:25:12;;;;;;;21.60;11.07;;;;;;;2.05;100.00;99531.59;5152755;27;20046;-52
2022/11/15 07:27:39;;;;;;;24.10;10.65;;;;;;;2.38;100.00;99535.03;5152302;27;20046;-53
2022/11/15 07:30:06;;;;;;;20.27;12.07;;;;;;;2.67;100.00;99566.41;5152375;27;20564;-53
2022/11/15 07:32:32;;;;;;;19.88;9.18;;;;;;;2.44;100.00;99587.16;5152429;27;20046;-55
2022/11/15 07:34:59;;;;;;;19.45;9.07;;;;;;;2.28;100.00;99598.25;5152093;27;20129;-52
2022/11/15 07:37:25;;;;;;;15.50;9.30;;;;;;;2.27;100.00;99588.53;5152494;27;20047;-54
2022/11/15 07:39:51;;;;;;;17.42;8.18;;;;;;;2.23;100.00;99574.00;5152073;27;20046;-54
2022/11/15 07:45:03;;;;;;;18.30;8.25;;;;;;;2.05;100.00;99539.72;5152214;27;20467;-52
2022/11/15 07:47:30;;;;;;;19.35;7.70;;;;;;;1.56;100.00;99527.59;5152476;27;20054;-53
2022/11/15 07:49:56;;;;;;;12.02;6.10;;;;;;;1.58;100.00;99493.78;5151710;27;20052;-52
2022/11/15 07:52:22;;;;;;;15.65;6.35;;;;;;;1.67;100.00;99466.06;5152123;27;20544;-53
2022/11/15 07:54:49;;;;;;;18.38;7.50;;;;;;;1.62;100.00;99442.66;5152171;27;20094;-52
2022/11/15 07:57:15;;;;;;;16.63;7.20;;;;;;;1.45;100.00;99416.19;5152292;27;20051;-53
2022/11/15 07:59:41;;;;;;;24.17;8.63;;;;;;;1.76;100.00;99378.56;5152118;27;20158;-53
2022/11/15 08:02:09;;;;;;;9.07;5.03;;;;;;;1.75;100.00;99373.50;5152007;27;20135;-53
2022/11/15 08:04:36;;;;;;;14.05;6.15;;;;;;;2.06;100.00;99358.22;5152289;27;20757;-55
2022/11/15 08:07:02;;;;;;;10.20;5.28;;;;;;;2.24;100.00;99347.56;5151994;27;20588;-53
2022/11/15 08:09:28;;;;;;;12.05;5.45;;;;;;;1.86;100.00;99362.16;5151707;27;20059;-54
2022/11/15 08:11:55;;;;;;;12.70;5.10;;;;;;;2.28;100.00;99352.06;5151652;27;20420;-52
2022/11/15 08:14:21;;;;;;;7.45;3.97;;;;;;;1.91;100.00;99347.75;5152019;27;20089;-52
2022/11/15 08:16:48;;;;;;;13.15;4.85;;;;;;;2.12;100.00;99350.78;5151443;27;20070;-53
2022/11/15 08:19:15;;;;;;;11.38;4.85;;;;;;;1.82;100.00;99339.53;5151562;27;20390;-53
2022/11/15 08:21:41;;;;;;;7.95;3.88;;;;;;;1.70;100.00;99325.75;5151630;27;20082;-53
2022/11/15 08:24:10;;;;;;;9.10;4.57;;;;;;;1.71;100.00;99310.31;5151557;27;20047;-52
2022/11/15 08:26:36;;;;;;;7.80;3.85;;;;;;;1.74;100.00;99301.63;5151616;27;20077;-52
2022/11/15 08:29:03;;;;;;;7.20;3.95;;;;;;;1.90;100.00;99275.84;5151376;27;20054;-54
2022/11/15 08:31:29;;;;;;;6.25;4.15;;;;;;;2.23;100.00;99275.63;5151726;27;20047;-53
2022/11/15 08:33:55;;;;;;;6.22;3.80;;;;;;;2.21;100.00;99286.75;5151159;27;20086;-52
2022/11/15 08:36:23;;;;;;;7.32;4.10;;;;;;;2.06;100.00;99290.59;5150792;27;20133;-53
2022/11/15 08:38:49;;;;;;;9.77;4.43;;;;;;;2.59;100.00;99279.06;5151097;27;20070;-56
2022/11/15 08:41:24;;;;;;;14.85;5.53;;;;;;;2.30;100.00;99293.06;5151541;27;20141;-53
2022/11/15 08:43:50;;;;;;;8.88;4.75;;;;;;;2.21;100.00;99303.00;5151134;27;20046;-54
2022/11/15 08:46:18;;;;;;;7.30;4.85;;;;;;;2.09;100.00;99303.53;5151189;27;20050;-53
2022/11/15 08:48:44;;;;;;;8.38;4.85;;;;;;;2.44;100.00;99279.47;5151350;27;20138;-53
2022/11/15 08:51:10;;;;;;;7.78;4.63;;;;;;;1.95;100.00;99296.56;5151130;27;20051;-52
2022/11/15 08:53:37;;;;;;;8.23;5.45;;;;;;;2.49;100.00;99287.44;5151529;27;20412;-55
2022/11/15 08:56:07;;;;;;;9.15;4.57;;;;;;;2.62;100.00;99295.81;5151385;27;20106;-53
2022/11/15 08:58:34;;;;;;;9.98;5.18;;;;;;;2.50;100.00;99299.88;5151041;27;20555;-53
2022/11/15 09:01:00;;;;;;;13.32;6.72;;;;;;;2.51;100.00;99308.78;5151060;27;20395;-54
2022/11/15 09:03:26;;;;;;;16.35;7.53;;;;;;;2.49;100.00;99319.91;5150983;27;20047;-53
2022/11/15 09:05:55;;;;;;;11.77;6.13;;;;;;;2.07;100.00;99321.19;5151074;27;20103;-56
2022/11/15 09:08:22;;;;;;;9.98;5.05;;;;;;;2.40;100.00;99302.84;5150829;27;20050;-54
2022/11/15 09:10:49;;;;;;;15.27;8.27;;;;;;;2.49;100.00;99286.63;5150799;27;20047;-53
2022/11/15 09:13:15;;;;;;;21.65;9.90;;;;;;;2.81;100.00;99288.28;5150752;27;20053;-55
2022/11/15 09:15:42;;;;;;;32.75;15.98;;;;;;;2.67;100.00;99271.34;5151017;27;20142;-56
2022/11/15 09:18:08;;;;;;;30.80;18.05;;;;;;;2.57;100.00;99275.88;5150647;27;20050;-52
2022/11/15 09:20:34;;;;;;;24.23;14.77;;;;;;;2.11;100.00;99279.69;5150809;27;20607;-51
2022/11/15 09:23:01;;;;;;;26.95;16.10;;;;;;;2.49;100.00;99254.97;5150908;27;20137;-53
2022/11/15 09:25:27;;;;;;;31.98;18.60;;;;;;;2.71;100.00;99253.34;5151176;27;20400;-54
2022/11/15 09:27:55;;;;;;;30.92;17.42;;;;;;;3.01;100.00;99268.78;5151004;27;20147;-54
2022/11/15 09:30:21;;;;;;;26.42;13.43;;;;;;;2.35;100.00;99290.22;5151120;27;20070;-52
2022/11/15 09:32:47;;;;;;;22.88;12.52;;;;;;;2.46;100.00;99282.63;5150982;27;20073;-52
2022/11/15 09:35:14;;;;;;;20.77;12.85;;;;;;;2.68;100.00;99270.22;5150670;27;20056;-53
2022/11/15 09:37:40;;;;;;;34.47;17.63;;;;;;;2.93;100.00;99266.03;5150389;27;20058;-52
2022/11/15 09:40:10;;;;;;;28.25;14.52;;;;;;;3.08;100.00;99283.81;5150860;27;20050;-52
2022/11/15 09:42:52;;;;;;;33.67;17.30;;;;;;;2.89;100.00;99305.69;5150951;27;20075;-52
2022/11/15 09:45:26;;;;;;;28.58;15.80;;;;;;;3.11;100.00;99296.72;5150486;27;20405;-53
2022/11/15 09:48:08;;;;;;;29.63;13.50;;;;;;;2.78;100.00;99305.16;5153838;27;20088;-57
2022/11/15 09:50:39;;;;;;;29.50;14.10;;;;;;;3.10;100.00;99295.94;5153961;27;20047;-55
2022/11/15 09:53:05;;;;;;;29.00;13.85;;;;;;;3.28;100.00;99285.94;5154302;27;20509;-54
2022/11/15 09:55:39;;;;;;;28.10;14.30;;;;;;;3.14;100.00;99298.81;5153894;27;20065;-52
2022/11/15 09:58:16;;;;;;;26.10;14.68;;;;;;;3.27;100.00;99279.72;5153916;27;20175;-53
2022/11/15 10:00:48;;;;;;;37.35;17.13;;;;;;;3.35;100.00;99293.63;5153712;27;20062;-53
2022/11/15 10:03:16;;;;;;;32.25;17.60;;;;;;;3.58;100.00;99299.75;5154366;27;20049;-52
2022/11/15 10:05:45;;;;;;;40.40;19.23;;;;;;;3.88;100.00;99311.63;5154264;27;20043;-55
2022/11/15 10:08:26;;;;;;;33.47;18.95;;;;;;;4.04;100.00;99345.31;5153512;27;20047;-53
2022/11/15 10:10:56;;;;;;;24.60;14.32;;;;;;;4.01;100.00;99364.94;5153939;27;20128;-53
2022/11/15 10:13:25;;;;;;;24.20;12.98;;;;;;;3.84;100.00;99386.59;5153813;27;20463;-52
2022/11/15 10:15:57;;;;;;;31.77;16.20;;;;;;;3.92;100.00;99374.97;5154025;27;20195;-54
2022/11/15 10:18:31;;;;;;;26.83;13.63;;;;;;;3.95;100.00;99374.34;5153260;27;20173;-54
2022/11/15 10:21:00;;;;;;;24.92;13.50;;;;;;;3.74;100.00;99380.34;5153363;27;20141;-53
2022/11/15 10:23:28;;;;;;;26.75;14.80;;;;;;;3.99;100.00;99365.25;5153380;27;20084;-52
2022/11/15 10:25:57;;;;;;;18.95;12.38;;;;;;;3.39;100.00;99376.69;5153552;27;20082;-53
2022/11/15 10:28:27;;;;;;;25.48;11.95;;;;;;;3.73;100.00;99346.22;5153384;27;20051;-55
2022/11/15 10:30:56;;;;;;;20.02;10.70;;;;;;;3.38;100.00;99352.63;5153489;27;20051;-57
2022/11/15 10:33:27;;;;;;;20.58;10.93;;;;;;;3.60;100.00;99320.03;5153617;27;20086;-55
2022/11/15 10:36:15;;;;;;;21.95;11.98;;;;;;;4.03;100.00;99323.91;5153082;27;20095;-55
2022/11/15 10:38:53;;;;;;;21.92;11.77;;;;;;;3.83;100.00;99330.75;5153456;27;20054;-57
2022/11/15 10:41:21;;;;;;;19.15;10.18;;;;;;;3.50;100.00;99304.84;5153072;27;20055;-56
2022/11/15 10:44:08;;;;;;;15.65;9.77;;;;;;;3.42;100.00;99281.22;5152914;27;20129;-55
2022/11/15 10:46:36;;;;;;;15.55;9.73;;;;;;;3.83;100.00;99249.38;5153281;27;20089;-56
2022/11/15 10:49:13;;;;;;;16.23;9.95;;;;;;;3.93;100.00;99249.06;5153078;27;20051;-53
2022/11/15 10:51:43;;;;;;;15.27;9.68;;;;;;;3.72;100.00;99251.63;5153173;27;20194;-56
2022/11/15 10:54:12;;;;;;;18.40;10.88;;;;;;;3.61;100.00;99237.56;5152912;27;20068;-52
2022/11/15 10:56:41;;;;;;;16.58;9.15;;;;;;;3.78;100.00;99229.44;5152780;27;20454;-59
2022/11/15 10:59:16;;;;;;;14.55;8.30;;;;;;;3.83;100.00;99230.41;5152060;27;20140;-56
2022/11/15 11:01:47;;;;;;;18.02;9.77;;;;;;;3.78;100.00;99224.03;5153226;27;20046;-55
2022/11/15 11:04:14;;;;;;;15.13;8.30;;;;;;;4.15;100.00;99216.38;5152586;27;20502;-54
2022/11/15 11:06:47;;;;;;;19.92;9.50;;;;;;;4.19;100.00;99222.75;5152602;27;20497;-57
2022/11/15 11:09:27;;;;;;;20.52;8.80;;;;;;;3.85;100.00;99228.97;5152921;27;20059;-55
2022/11/15 11:11:54;;;;;;;12.90;7.88;;;;;;;3.71;100.00;99217.50;5152321;27;20047;-52
2022/11/15 11:14:22;;;;;;;11.60;6.97;;;;;;;3.60;100.00;99222.44;5152535;27;20046;-47
2022/11/15 11:16:53;;;;;;;12.30;7.57;;;;;;;3.72;100.00;99214.44;5152420;27;20133;-48
2022/11/15 11:19:54;;;;;;;11.93;7.22;;;;;;;3.73;100.00;99209.81;5152268;27;20047;-46
2022/11/15 11:22:26;;;;;;;17.70;8.25;;;;;;;4.31;100.00;99205.03;5143438;27;20576;-48
2022/11/15 11:25:17;;;;;;;12.32;7.60;;;;;;;4.22;100.00;99219.38;5152226;27;20047;-48
2022/11/15 11:27:57;;;;;;;16.20;7.72;;;;;;;3.72;100.00;99233.44;5152131;27;20046;-49
2022/11/15 11:30:36;;;;;;;18.88;7.57;;;;;;;4.03;100.00;99210.78;5152354;27;20161;-50
2022/11/15 11:33:16;;;;;;;14.25;8.13;;;;;;;4.52;100.00;99196.97;5152363;27;20153;-47
2022/11/15 11:35:52;;;;;;;19.80;8.25;;;;;;;4.23;100.00;99218.28;5152237;27;20086;-48
2022/11/15 11:38:33;;;;;;;12.05;6.57;;;;;;;4.37;100.00;99217.31;5152053;27;20051;-49
2022/11/15 11:41:08;;;;;;;17.55;7.70;;;;;;;4.05;100.00;99241.09;5152290;27;20046;-48
2022/11/15 11:43:46;;;;;;;17.27;9.52;;;;;;;4.41;100.00;99224.47;5151837;27;20054;-49